createdAt,value
2023-05-16T00:01:14.781Z,16.40
2023-05-16T00:03:49.313Z,18.63
2023-05-16T00:06:22.684Z,17.01
2023-05-16T00:08:55.840Z,15.38
2023-05-16T00:11:29.241Z,15.31
2023-05-16T00:14:02.741Z,14.27
2023-05-16T00:16:37.139Z,14.37
2023-05-16T00:19:11.874Z,15.65
2023-05-16T00:21:45.191Z,14.93
2023-05-16T00:24:18.313Z,13.19
2023-05-16T00:26:51.440Z,13.49
2023-05-16T00:29:25.111Z,15.30
2023-05-16T00:31:58.264Z,15.84
2023-05-16T00:34:32.856Z,18.13
2023-05-16T00:37:06.637Z,17.19
2023-05-16T00:39:40.173Z,18.28
2023-05-16T00:42:13.388Z,15.63
2023-05-16T00:44:46.628Z,18.04
2023-05-16T00:47:20.364Z,18.66
2023-05-16T00:49:55.336Z,17.11
2023-05-16T00:52:29.136Z,18.59
2023-05-16T00:55:02.385Z,17.55
2023-05-16T00:57:35.739Z,19.01
2023-05-16T01:00:12.063Z,18.31
2023-05-16T01:02:45.620Z,17.21
2023-05-16T01:05:20.541Z,21.78
2023-05-16T01:07:53.718Z,20.29
2023-05-16T01:10:33.866Z,21.02
2023-05-16T01:13:14.346Z,19.44
2023-05-16T01:15:57.926Z,21.38
2023-05-16T01:18:41.882Z,22.47
2023-05-16T01:21:24.106Z,20.93
2023-05-16T01:24:11.315Z,22.44
2023-05-16T01:26:48.112Z,23.81
2023-05-16T01:29:21.407Z,24.53
2023-05-16T01:31:58.562Z,24.21
2023-05-16T01:34:31.993Z,25.23
2023-05-16T01:37:17.908Z,26.65
2023-05-16T01:39:57.927Z,25.32
2023-05-16T01:42:38.165Z,24.07
2023-05-16T01:45:17.965Z,25.74
2023-05-16T01:48:00.467Z,26.18
2023-05-16T01:50:37.894Z,24.47
2023-05-16T01:53:16.829Z,27.89
2023-05-16T01:55:53.745Z,29.53
2023-05-16T01:58:34.353Z,29.36
2023-05-16T02:01:07.736Z,28.91
2023-05-16T02:03:40.981Z,27.39
2023-05-16T02:06:14.129Z,27.01
2023-05-16T02:08:47.269Z,25.56
2023-05-16T02:11:22.249Z,28.68
2023-05-16T02:13:56.892Z,29.10
2023-05-16T02:16:31.569Z,29.47
2023-05-16T02:19:05.226Z,26.65
2023-05-16T02:21:38.419Z,26.99
2023-05-16T02:24:11.555Z,29.12
2023-05-16T02:26:44.659Z,29.03
2023-05-16T02:29:19.871Z,29.90
2023-05-16T02:31:53.086Z,31.47
2023-05-16T02:34:26.227Z,29.59
2023-05-16T02:36:59.421Z,29.23
2023-05-16T02:39:32.821Z,29.11
2023-05-16T02:42:06.462Z,29.43
2023-05-16T02:44:41.200Z,30.43
2023-05-16T02:47:14.418Z,27.80
2023-05-16T02:49:47.623Z,28.34
2023-05-16T02:52:21.113Z,26.33
2023-05-16T02:57:30.401Z,26.18
2023-05-16T03:00:06.159Z,32.47
2023-05-16T03:02:39.643Z,29.20
2023-05-16T03:05:14.338Z,27.69
2023-05-16T03:07:47.641Z,29.78
2023-05-16T03:10:20.805Z,28.30
2023-05-16T03:12:54.033Z,26.44
2023-05-16T03:15:29.991Z,30.21
2023-05-16T03:18:03.176Z,28.72
2023-05-16T03:20:36.450Z,29.35
2023-05-16T03:23:11.973Z,29.04
2023-05-16T03:25:46.336Z,26.47
2023-05-16T03:28:19.512Z,30.16
2023-05-16T03:30:54.204Z,27.31
2023-05-16T03:33:27.512Z,28.40
2023-05-16T03:36:00.814Z,27.40
2023-05-16T03:38:36.794Z,28.75
2023-05-16T03:41:09.971Z,25.15
2023-05-16T03:43:43.187Z,28.19
2023-05-16T03:46:17.677Z,27.14
2023-05-16T03:48:51.043Z,29.86
2023-05-16T03:51:24.181Z,26.85
2023-05-16T03:53:58.058Z,26.75
2023-05-16T03:56:31.640Z,29.62
2023-05-16T03:59:04.774Z,25.55
2023-05-16T04:01:39.304Z,26.08
2023-05-16T04:04:12.619Z,25.93
2023-05-16T04:06:45.874Z,25.59
2023-05-16T04:09:19.689Z,24.12
2023-05-16T04:11:52.848Z,24.54
2023-05-16T04:14:26.312Z,21.69
2023-05-16T04:17:00.943Z,25.59
2023-05-16T04:19:34.158Z,26.13
2023-05-16T04:22:07.624Z,26.47
2023-05-16T04:24:41.139Z,27.72
2023-05-16T04:27:14.308Z,30.25
2023-05-16T04:29:48.076Z,28.33
2023-05-16T04:32:23.962Z,27.04
2023-05-16T04:34:57.146Z,27.94
2023-05-16T04:37:30.357Z,26.66
2023-05-16T04:40:03.527Z,24.40
2023-05-16T04:42:36.623Z,25.52
2023-05-16T04:45:12.087Z,25.09
2023-05-16T04:47:46.637Z,23.79
2023-05-16T04:50:19.981Z,21.83
2023-05-16T04:52:55.136Z,21.33
2023-05-16T04:55:29.760Z,23.43
2023-05-16T04:58:03.092Z,20.67
2023-05-16T05:00:40.642Z,23.89
2023-05-16T05:03:15.107Z,21.97
2023-05-16T05:05:48.693Z,23.01
2023-05-16T05:08:22.725Z,20.65
2023-05-16T05:10:57.274Z,19.94
2023-05-16T05:13:30.945Z,21.72
2023-05-16T05:16:04.991Z,22.46
2023-05-16T05:18:39.571Z,20.68
2023-05-16T05:21:12.777Z,23.29
2023-05-16T05:23:46.144Z,22.52
2023-05-16T05:26:19.747Z,23.69
2023-05-16T05:29:04.669Z,22.71
2023-05-16T05:31:39.138Z,21.92
2023-05-16T05:34:13.650Z,22.20
2023-05-16T05:36:49.133Z,23.32
2023-05-16T05:39:22.268Z,23.22
2023-05-16T05:41:55.444Z,24.73
2023-05-16T05:44:28.564Z,23.13
2023-05-16T05:47:01.976Z,24.08
2023-05-16T05:49:36.962Z,24.13
2023-05-16T05:52:10.104Z,25.66
2023-05-16T05:54:43.281Z,23.36
2023-05-16T05:57:16.447Z,24.44
2023-05-16T05:59:49.592Z,22.99
2023-05-16T06:02:22.774Z,21.90
2023-05-16T06:04:57.543Z,22.24
2023-05-16T06:07:30.754Z,20.63
2023-05-16T06:10:05.466Z,23.59
2023-05-16T06:12:38.668Z,24.84
2023-05-16T06:15:12.599Z,23.10
2023-05-16T06:17:45.842Z,22.35
2023-05-16T06:20:20.631Z,21.38
2023-05-16T06:22:53.972Z,24.28
2023-05-16T06:25:27.216Z,22.37
2023-05-16T06:28:00.501Z,22.46
2023-05-16T06:30:33.632Z,24.39
2023-05-16T06:33:07.987Z,22.54
2023-05-16T06:35:42.576Z,24.45
2023-05-16T06:38:15.961Z,22.20
2023-05-16T06:40:49.318Z,23.75
2023-05-16T06:43:22.517Z,22.43
2023-05-16T06:45:55.693Z,23.68
2023-05-16T06:48:28.975Z,21.45
2023-05-16T06:51:03.765Z,21.94
2023-05-16T06:53:39.148Z,20.48
2023-05-16T06:56:12.442Z,22.28
2023-05-16T06:58:45.979Z,20.22
2023-05-16T07:01:19.138Z,18.91
2023-05-16T07:03:52.553Z,19.07
2023-05-16T07:06:27.226Z,20.78
2023-05-16T07:09:00.682Z,20.96
2023-05-16T07:11:33.808Z,17.93
2023-05-16T07:14:06.977Z,17.38
2023-05-16T07:16:40.247Z,15.06
2023-05-16T07:19:13.608Z,17.06
2023-05-16T07:21:48.149Z,16.24
2023-05-16T07:24:21.347Z,16.05
2023-05-16T07:26:54.507Z,16.97
2023-05-16T07:29:28.436Z,18.52
2023-05-16T07:32:02.120Z,17.76
2023-05-16T07:34:35.293Z,25.07
2023-05-16T07:37:13.042Z,22.09
2023-05-16T07:39:46.312Z,21.37
2023-05-16T07:42:19.451Z,19.87
2023-05-16T07:44:52.691Z,20.78
2023-05-16T07:47:25.989Z,20.02
2023-05-16T07:49:59.276Z,17.17
2023-05-16T07:52:33.795Z,16.11
2023-05-16T07:55:08.166Z,14.23
2023-05-16T07:57:41.671Z,13.67
2023-05-16T08:00:15.807Z,15.87
2023-05-16T08:02:49.116Z,12.22
2023-05-16T08:05:22.550Z,16.10
2023-05-16T08:07:57.073Z,16.23
2023-05-16T08:10:30.199Z,16.59
2023-05-16T08:13:04.083Z,17.47
2023-05-16T08:15:37.262Z,16.04
2023-05-16T08:18:15.124Z,16.16
2023-05-16T08:20:48.451Z,17.97
2023-05-16T08:23:25.205Z,16.82
2023-05-16T08:26:01.070Z,17.24
2023-05-16T08:28:34.175Z,14.20
2023-05-16T08:31:07.381Z,16.33
2023-05-16T08:33:40.680Z,15.20
2023-05-16T08:36:15.893Z,16.76
2023-05-16T08:38:51.443Z,16.03
2023-05-16T08:41:27.575Z,19.34
2023-05-16T08:44:00.879Z,18.22
2023-05-16T08:46:36.255Z,18.20
2023-05-16T08:49:11.219Z,17.61
2023-05-16T08:51:45.678Z,16.91
2023-05-16T08:54:20.331Z,15.94
2023-05-16T08:56:54.470Z,15.20
2023-05-16T08:59:28.250Z,16.88
2023-05-16T09:02:01.794Z,14.92
2023-05-16T09:04:35.082Z,14.28
2023-05-16T09:07:08.338Z,13.67
2023-05-16T09:09:43.061Z,12.23
2023-05-16T09:12:16.241Z,13.46
2023-05-16T09:14:49.492Z,13.23
2023-05-16T09:17:32.187Z,11.04
2023-05-16T09:20:17.476Z,12.77
2023-05-16T09:22:55.102Z,13.18
2023-05-16T09:25:32.422Z,13.03
2023-05-16T09:28:06.162Z,14.72
2023-05-16T09:30:39.550Z,14.16
2023-05-16T09:33:13.359Z,13.02
2023-05-16T09:35:46.622Z,14.64
2023-05-16T09:38:20.127Z,11.95
2023-05-16T09:40:55.081Z,12.62
2023-05-16T09:43:28.399Z,13.61
2023-05-16T09:46:02.666Z,11.90
2023-05-16T09:48:36.391Z,13.31
2023-05-16T09:51:09.801Z,12.47
2023-05-16T09:53:43.313Z,12.61
2023-05-16T09:56:17.953Z,11.09
2023-05-16T09:58:53.836Z,11.52
2023-05-16T10:01:27.311Z,12.49
2023-05-16T10:04:00.591Z,11.24
2023-05-16T10:06:35.046Z,11.72
2023-05-16T10:09:13.423Z,10.80
2023-05-16T10:11:50.853Z,13.20
2023-05-16T10:14:27.164Z,11.75
2023-05-16T10:17:01.836Z,11.49
2023-05-16T10:19:40.691Z,12.70
2023-05-16T10:22:16.076Z,13.00
2023-05-16T10:24:56.322Z,15.38
2023-05-16T10:27:33.166Z,14.35
2023-05-16T10:30:08.390Z,13.10
2023-05-16T10:32:43.004Z,12.10
2023-05-16T10:35:16.778Z,12.09
2023-05-16T10:37:52.255Z,13.73
2023-05-16T10:40:26.477Z,13.27
2023-05-16T10:43:03.270Z,12.63
2023-05-16T10:45:41.865Z,12.07
2023-05-16T10:48:15.586Z,11.95
2023-05-16T10:50:48.886Z,10.62
2023-05-16T10:53:31.007Z,11.93
2023-05-16T10:56:10.154Z,11.07
2023-05-16T10:58:47.788Z,9.63
2023-05-16T11:01:25.689Z,10.34
2023-05-16T11:04:16.813Z,11.17
2023-05-16T11:06:56.651Z,11.78
2023-05-16T11:09:29.770Z,12.24
2023-05-16T11:12:04.023Z,11.86
2023-05-16T11:14:42.398Z,12.18
2023-05-16T11:17:17.495Z,12.35
2023-05-16T11:19:52.431Z,12.68
2023-05-16T11:22:27.561Z,9.84
2023-05-16T11:25:02.705Z,13.58
2023-05-16T11:27:38.527Z,10.61
2023-05-16T11:30:19.457Z,10.66
2023-05-16T11:32:52.818Z,10.60
2023-05-16T11:35:26.070Z,10.57
2023-05-16T11:37:59.502Z,12.02
2023-05-16T11:40:32.823Z,12.54
2023-05-16T11:43:07.293Z,11.37
2023-05-16T11:45:42.339Z,10.47
2023-05-16T11:48:24.666Z,10.80
2023-05-16T11:51:06.854Z,11.74
2023-05-16T11:53:40.209Z,13.51
2023-05-16T11:56:13.591Z,12.35
2023-05-16T11:58:47.703Z,12.53
2023-05-16T12:01:22.261Z,12.03
2023-05-16T12:03:57.078Z,12.53
2023-05-16T12:06:31.377Z,12.30
2023-05-16T12:09:10.534Z,11.43
2023-05-16T12:11:45.618Z,13.01
2023-05-16T12:14:19.531Z,12.36
2023-05-16T12:16:55.002Z,13.37
2023-05-16T12:19:28.489Z,11.40
2023-05-16T12:22:01.797Z,12.99
2023-05-16T12:24:35.052Z,14.35
2023-05-16T12:27:09.732Z,13.06
2023-05-16T12:29:48.707Z,14.59
2023-05-16T12:32:23.358Z,12.30
2023-05-16T12:34:58.628Z,11.94
2023-05-16T12:37:31.737Z,8.75
2023-05-16T12:40:06.225Z,9.16
2023-05-16T12:42:39.348Z,9.04
2023-05-16T12:45:17.147Z,8.85
2023-05-16T12:47:52.041Z,9.44
2023-05-16T12:50:29.218Z,10.31
2023-05-16T12:53:02.619Z,11.56
2023-05-16T12:55:36.025Z,9.94
2023-05-16T12:58:09.584Z,10.54
2023-05-16T13:00:42.973Z,11.19
2023-05-16T13:03:17.527Z,9.59
2023-05-16T13:05:53.008Z,10.66
2023-05-16T13:08:28.758Z,11.45
2023-05-16T13:11:01.883Z,9.99
2023-05-16T13:13:36.697Z,10.33
2023-05-16T13:16:10.428Z,11.72
2023-05-16T13:18:47.125Z,10.65
2023-05-16T13:21:20.262Z,9.64
2023-05-16T13:23:53.367Z,10.98
2023-05-16T13:26:26.729Z,9.60
2023-05-16T13:28:59.780Z,8.78
2023-05-16T13:31:33.379Z,10.27
2023-05-16T13:34:07.922Z,10.37
2023-05-16T13:36:53.215Z,10.56
2023-05-16T13:39:27.320Z,11.05
2023-05-16T13:42:00.976Z,11.51
2023-05-16T13:44:36.313Z,12.05
2023-05-16T13:47:09.857Z,12.89
2023-05-16T13:49:44.467Z,13.06
2023-05-16T13:52:17.628Z,12.78
2023-05-16T13:54:50.726Z,11.78
2023-05-16T13:57:24.082Z,9.17
2023-05-16T14:00:24.989Z,11.28
2023-05-16T14:02:50.813Z,11.66
2023-05-16T14:05:26.202Z,11.90
2023-05-16T14:07:59.274Z,12.12
2023-05-16T14:10:32.633Z,11.88
2023-05-16T14:13:06.125Z,14.36
2023-05-16T14:15:39.271Z,11.55
2023-05-16T14:18:13.516Z,12.02
2023-05-16T14:20:48.405Z,12.34
2023-05-16T14:23:21.525Z,13.45
2023-05-16T14:25:56.797Z,14.95
2023-05-16T14:28:30.426Z,14.64
2023-05-16T14:31:03.960Z,16.39
2023-05-16T14:33:37.179Z,16.39
2023-05-16T14:36:11.770Z,15.82
2023-05-16T14:38:44.959Z,16.33
2023-05-16T14:41:18.148Z,17.00
2023-05-16T14:43:51.911Z,16.74
2023-05-16T14:46:25.088Z,15.86
2023-05-16T14:48:58.334Z,15.94
2023-05-16T14:51:33.220Z,14.59
2023-05-16T14:54:06.729Z,15.08
2023-05-16T14:56:39.891Z,16.99
2023-05-16T14:59:13.673Z,15.82
2023-05-16T15:01:46.943Z,14.09
2023-05-16T15:04:20.149Z,15.02
2023-05-16T15:06:54.692Z,15.28
2023-05-16T15:09:27.876Z,14.73
2023-05-16T15:12:02.050Z,15.63
2023-05-16T15:14:35.297Z,16.39
2023-05-16T15:17:09.272Z,16.50
2023-05-16T15:19:42.664Z,17.54
2023-05-16T15:22:17.297Z,16.32
2023-05-16T15:24:50.464Z,16.10
2023-05-16T15:27:23.636Z,16.08
2023-05-16T15:29:56.833Z,17.56
2023-05-16T15:32:30.169Z,16.25
2023-05-16T15:35:03.909Z,15.32
2023-05-16T15:37:38.868Z,15.09
2023-05-16T15:40:13.682Z,14.92
2023-05-16T15:42:47.031Z,18.96
2023-05-16T15:45:20.262Z,15.95
2023-05-16T15:47:53.463Z,16.95
2023-05-16T15:50:26.807Z,14.86
2023-05-16T15:53:01.550Z,18.08
2023-05-16T15:55:34.730Z,16.04
2023-05-16T15:58:07.889Z,16.91
2023-05-16T16:00:45.591Z,17.07
2023-05-16T16:03:18.930Z,17.79
2023-05-16T16:05:52.509Z,16.29
2023-05-16T16:08:29.776Z,17.41
2023-05-16T16:11:03.603Z,16.08
2023-05-16T16:13:36.899Z,17.18
2023-05-16T16:16:10.129Z,18.05
2023-05-16T16:18:43.888Z,20.57
2023-05-16T16:21:19.181Z,18.75
2023-05-16T16:23:53.693Z,18.61
2023-05-16T16:26:26.879Z,19.34
2023-05-16T16:29:00.531Z,20.10
2023-05-16T16:31:33.831Z,20.10
2023-05-16T16:34:07.109Z,21.02
2023-05-16T16:36:40.236Z,28.53
2023-05-16T16:39:14.715Z,23.17
2023-05-16T16:41:47.911Z,20.34
2023-05-16T16:44:21.390Z,18.86
2023-05-16T16:46:54.587Z,18.79
2023-05-16T16:49:27.862Z,19.09
2023-05-16T16:52:01.144Z,17.81
2023-05-16T16:54:38.753Z,17.34
2023-05-16T16:57:11.902Z,19.23
2023-05-16T16:59:46.587Z,19.29
2023-05-16T17:02:19.876Z,22.01
2023-05-16T17:04:53.144Z,19.27
2023-05-16T17:07:26.391Z,19.96
2023-05-16T17:10:01.119Z,17.14
2023-05-16T17:12:34.812Z,19.97
2023-05-16T17:15:09.491Z,20.00
2023-05-16T17:17:43.250Z,18.94
2023-05-16T17:20:16.514Z,18.70
2023-05-16T17:22:49.644Z,20.70
2023-05-16T17:25:24.189Z,18.74
2023-05-16T17:27:57.388Z,20.25
2023-05-16T17:30:30.937Z,17.67
2023-05-16T17:33:04.403Z,17.77
2023-05-16T17:35:37.793Z,17.12
2023-05-16T17:38:11.365Z,19.29
2023-05-16T17:40:45.875Z,18.37
2023-05-16T17:43:19.014Z,17.45
2023-05-16T17:45:52.183Z,17.88
2023-05-16T17:48:25.430Z,17.60
2023-05-16T17:50:58.720Z,17.90
2023-05-16T17:53:34.355Z,18.70
2023-05-16T17:56:09.266Z,17.19
2023-05-16T17:58:42.609Z,16.18
2023-05-16T18:01:16.281Z,17.46
2023-05-16T18:03:49.448Z,16.64
2023-05-16T18:06:22.683Z,17.00
2023-05-16T18:08:55.826Z,15.18
2023-05-16T18:11:30.428Z,17.34
2023-05-16T18:14:03.680Z,16.55
2023-05-16T18:16:37.137Z,17.96
2023-05-16T18:19:10.753Z,17.87
2023-05-16T18:21:45.020Z,14.92
2023-05-16T18:24:18.222Z,18.61
2023-05-16T18:26:52.829Z,15.52
2023-05-16T18:29:26.820Z,17.81
2023-05-16T18:32:00.102Z,18.06
2023-05-16T18:34:34.081Z,16.30
2023-05-16T18:37:07.262Z,16.54
2023-05-16T18:39:41.614Z,16.51
2023-05-16T18:42:17.415Z,18.00
2023-05-16T18:44:53.211Z,16.92
2023-05-16T18:47:26.692Z,17.16
2023-05-16T18:49:59.955Z,16.35
2023-05-16T18:52:35.292Z,16.54
2023-05-16T18:55:09.248Z,18.01
2023-05-16T18:57:45.292Z,18.35
2023-05-16T19:00:20.048Z,19.98
2023-05-16T19:02:53.175Z,17.83
2023-05-16T19:05:26.618Z,16.04
2023-05-16T19:08:00.100Z,17.79
2023-05-16T19:10:38.002Z,18.18
2023-05-16T19:13:12.484Z,17.56
2023-05-16T19:15:45.634Z,17.39
2023-05-16T19:18:19.584Z,17.79
2023-05-16T19:20:52.981Z,17.76
2023-05-16T19:23:26.278Z,18.55
2023-05-16T19:25:59.558Z,18.20
2023-05-16T19:28:34.769Z,19.29
2023-05-16T19:31:08.224Z,20.55
2023-05-16T19:33:41.464Z,21.51
2023-05-16T19:36:14.712Z,20.54
2023-05-16T19:38:47.897Z,20.32
2023-05-16T19:41:21.492Z,18.97
2023-05-16T19:43:56.057Z,20.48
2023-05-16T19:46:29.323Z,20.86
2023-05-16T19:49:02.959Z,20.44
2023-05-16T19:51:41.678Z,19.12
2023-05-16T19:54:15.749Z,19.51
2023-05-16T19:56:49.004Z,19.03
2023-05-16T19:59:23.554Z,19.51
2023-05-16T20:01:56.710Z,22.70
2023-05-16T20:04:32.331Z,21.90
2023-05-16T20:07:05.765Z,20.86
2023-05-16T20:09:39.065Z,21.16
2023-05-16T20:12:12.903Z,20.14
2023-05-16T20:14:47.499Z,19.73
2023-05-16T20:17:20.663Z,22.36
2023-05-16T20:19:53.884Z,19.48
2023-05-16T20:22:27.159Z,20.97
2023-05-16T20:25:00.675Z,19.25
2023-05-16T20:27:33.949Z,20.01
2023-05-16T20:30:09.846Z,20.23
2023-05-16T20:32:43.099Z,18.82
2023-05-16T20:35:16.340Z,21.18
2023-05-16T20:37:49.488Z,19.39
2023-05-16T20:40:23.155Z,20.24
2023-05-16T20:42:56.358Z,21.10
2023-05-16T20:45:31.272Z,19.24
2023-05-16T20:48:04.661Z,19.46
2023-05-16T20:50:38.967Z,19.54
2023-05-16T20:53:12.144Z,18.15
2023-05-16T20:55:45.316Z,18.35
2023-05-16T20:58:18.545Z,16.66
2023-05-16T21:00:53.062Z,20.22
2023-05-16T21:03:26.757Z,20.67
2023-05-16T21:06:00.010Z,19.84
2023-05-16T21:08:33.431Z,19.40
2023-05-16T21:11:06.576Z,20.72
2023-05-16T21:13:39.816Z,21.50
2023-05-16T21:16:14.282Z,22.13
2023-05-16T21:18:48.616Z,20.62
2023-05-16T21:21:21.928Z,20.94
2023-05-16T21:23:56.010Z,20.24
2023-05-16T21:26:29.187Z,17.70
2023-05-16T21:29:05.297Z,19.56
2023-05-16T21:31:40.341Z,20.21
2023-05-16T21:34:13.602Z,21.41
2023-05-16T21:36:46.892Z,21.38
2023-05-16T21:39:20.048Z,20.59
2023-05-16T21:41:53.153Z,22.02
2023-05-16T21:44:28.760Z,20.23
2023-05-16T21:47:03.824Z,20.95
2023-05-16T21:49:37.074Z,20.33
2023-05-16T21:52:10.330Z,19.01
2023-05-16T21:54:43.549Z,19.73
2023-05-16T21:57:16.695Z,21.91
2023-05-16T21:59:51.760Z,22.79
2023-05-16T22:02:26.333Z,23.91
2023-05-16T22:04:59.552Z,24.65
2023-05-16T22:07:32.817Z,20.09
2023-05-16T22:10:07.511Z,21.72
2023-05-16T22:12:40.693Z,21.37
2023-05-16T22:15:13.957Z,20.41
2023-05-16T22:17:49.112Z,19.49
2023-05-16T22:20:22.572Z,20.95
2023-05-16T22:22:55.827Z,19.86
2023-05-16T22:25:29.266Z,21.49
2023-05-16T22:28:02.630Z,22.15
2023-05-16T22:30:35.795Z,22.82
2023-05-16T22:33:10.454Z,21.43
2023-05-16T22:35:43.758Z,22.22
2023-05-16T22:38:16.984Z,22.44
2023-05-16T22:40:50.184Z,22.54
2023-05-16T22:43:23.350Z,23.01
2023-05-16T22:45:57.556Z,23.06
2023-05-16T22:48:32.394Z,25.23
2023-05-16T22:51:05.967Z,24.35
2023-05-16T22:53:39.162Z,22.72
2023-05-16T22:56:12.301Z,24.40
2023-05-16T22:58:45.490Z,24.76
2023-05-16T23:01:18.739Z,25.34
2023-05-16T23:03:53.295Z,27.40
2023-05-16T23:06:26.482Z,25.74
2023-05-16T23:09:01.043Z,28.22
2023-05-16T23:11:34.290Z,27.01
2023-05-16T23:14:07.425Z,25.46
2023-05-16T23:16:40.630Z,28.36
2023-05-16T23:19:15.170Z,24.94
2023-05-16T23:21:50.761Z,28.81
2023-05-16T23:24:25.036Z,25.41
2023-05-16T23:26:58.232Z,28.58
2023-05-16T23:29:31.342Z,28.56
2023-05-16T23:32:04.888Z,28.44
2023-05-16T23:34:39.392Z,26.87
2023-05-16T23:37:15.694Z,29.08
2023-05-16T23:39:51.080Z,28.21
2023-05-16T23:42:24.214Z,32.29
2023-05-16T23:44:57.397Z,29.40
2023-05-16T23:47:30.686Z,31.73
2023-05-16T23:50:05.926Z,31.70
2023-05-16T23:52:39.044Z,33.78
2023-05-16T23:55:12.178Z,33.63
2023-05-16T23:57:45.373Z,33.29
